Time;durP1;ratioP1;P1;durP2;ratioP2;P2;SDS_P1;SDS_P2;PMS_P1;PMS_P2;Temp;Humidity;BMP_temperature;BMP_pressure;BME280_temperature;BME280_humidity;BME280_pressure;Samples;Min_cycle;Max_cycle;Signal;HPM_P1;HPM_P2
2023/03/02 00:01:40;;;;;;;39.72;22.10;;;2.10;99.90;;;;;;5017365;28;20082;-82
2023/03/02 00:04:36;;;;;;;37.97;22.63;;;2.10;99.90;;;;;;5016212;28;20039;-82
2023/03/02 00:07:07;;;;;;;42.05;22.13;;;2.10;99.90;;;;;;4990019;28;20056;-82
2023/03/02 00:09:34;;;;;;;39.33;22.23;;;2.00;99.90;;;;;;5025901;28;20523;-82
2023/03/02 00:12:03;;;;;;;34.90;21.30;;;2.00;99.90;;;;;;5025957;28;20088;-80
2023/03/02 00:14:30;;;;;;;43.60;22.92;;;2.00;99.90;;;;;;5016102;28;20564;-82
2023/03/02 00:16:57;;;;;;;39.55;22.33;;;2.00;99.90;;;;;;5020359;28;20418;-81
2023/03/02 00:19:23;;;;;;;40.42;22.42;;;2.00;99.90;;;;;;5024037;28;20052;-81
2023/03/02 00:21:50;;;;;;;42.00;23.15;;;1.90;99.90;;;;;;5025456;28;20064;-82
2023/03/02 00:24:17;;;;;;;48.20;24.17;;;1.90;99.90;;;;;;5024068;28;20041;-81
2023/03/02 00:26:44;;;;;;;42.65;24.13;;;1.90;99.90;;;;;;5021373;28;20045;-82
2023/03/02 00:29:11;;;;;;;44.58;24.02;;;1.90;99.90;;;;;;5015744;28;20050;-81
2023/03/02 00:31:37;;;;;;;42.70;22.50;;;1.90;99.90;;;;;;5020790;28;20509;-81
2023/03/02 00:34:04;;;;;;;40.75;23.02;;;1.80;99.90;;;;;;5021907;28;20050;-81
2023/03/02 00:36:31;;;;;;;38.30;22.60;;;1.80;99.90;;;;;;5025371;28;20493;-81
2023/03/02 00:38:58;;;;;;;40.17;22.75;;;1.80;99.90;;;;;;5022895;28;20055;-81
2023/03/02 00:41:24;;;;;;;49.80;24.75;;;1.80;99.90;;;;;;5017871;28;20075;-80
2023/03/02 00:43:51;;;;;;;42.53;23.55;;;1.70;99.90;;;;;;5019259;28;20509;-81
2023/03/02 00:46:21;;;;;;;46.50;24.50;;;1.70;99.90;;;;;;5020224;28;20041;-81
2023/03/02 00:48:48;;;;;;;47.13;24.48;;;1.70;99.90;;;;;;5021843;28;20050;-81
2023/03/02 00:51:15;;;;;;;43.53;25.45;;;1.70;99.90;;;;;;5021002;28;20129;-80
2023/03/02 00:53:42;;;;;;;45.42;24.33;;;1.70;99.90;;;;;;5027182;28;20041;-81
2023/03/02 00:56:10;;;;;;;49.88;25.55;;;1.60;99.90;;;;;;5019785;28;20176;-80
2023/03/02 00:58:36;;;;;;;44.85;24.77;;;1.60;99.90;;;;;;5021304;28;20061;-81
2023/03/02 01:01:07;;;;;;;45.05;23.95;;;1.60;99.90;;;;;;5018468;28;20050;-80
2023/03/02 01:03:34;;;;;;;43.67;23.52;;;1.60;99.90;;;;;;5021096;28;20048;-82
2023/03/02 01:06:01;;;;;;;44.47;23.10;;;1.60;99.90;;;;;;5025642;28;20065;-81
2023/03/02 01:08:28;;;;;;;42.83;23.58;;;1.60;99.90;;;;;;5023853;28;20049;-81
2023/03/02 01:10:55;;;;;;;38.92;22.25;;;1.50;99.90;;;;;;5013128;28;20064;-81
2023/03/02 01:13:22;;;;;;;45.00;24.20;;;1.50;99.90;;;;;;5017234;28;20064;-81
2023/03/02 01:15:48;;;;;;;41.00;23.60;;;1.50;99.90;;;;;;5021447;28;20128;-81
2023/03/02 01:18:15;;;;;;;43.83;24.27;;;1.50;99.90;;;;;;5017012;28;20084;-81
2023/03/02 01:20:41;;;;;;;43.58;23.80;;;1.50;99.90;;;;;;5029012;28;20136;-81
2023/03/02 01:23:08;;;;;;;46.55;24.77;;;1.50;99.90;;;;;;5019813;28;20043;-80
2023/03/02 01:25:37;;;;;;;43.38;24.67;;;1.40;99.90;;;;;;5017284;28;20114;-81
2023/03/02 01:28:04;;;;;;;48.00;26.00;;;1.50;99.90;;;;;;5021163;28;20067;-81
2023/03/02 01:30:30;;;;;;;38.40;22.35;;;1.40;99.90;;;;;;5025975;28;20055;-81
2023/03/02 01:32:57;;;;;;;45.00;24.27;;;1.40;99.90;;;;;;5028990;28;20056;-81
2023/03/02 01:35:24;;;;;;;44.03;23.27;;;1.40;99.90;;;;;;5029000;28;20445;-80
2023/03/02 01:37:50;;;;;;;45.05;24.33;;;1.40;99.90;;;;;;5027169;28;20124;-80
2023/03/02 01:40:17;;;;;;;43.22;23.45;;;1.40;99.90;;;;;;5023255;28;20106;-82
2023/03/02 01:42:55;;;;;;;43.50;22.95;;;1.30;99.90;;;;;;5025172;28;20049;-81
2023/03/02 01:45:46;;;;;;;45.50;22.33;;;1.30;99.90;;;;;;5028786;28;20053;-80
2023/03/02 01:48:17;;;;;;;48.00;24.42;;;1.30;99.90;;;;;;5029963;28;20050;-82
2023/03/02 01:50:44;;;;;;;;;;;1.30;99.90;;;;;;5033729;28;20045;-83
2023/03/02 01:53:14;;;;;;;39.90;22.60;;;1.30;99.90;;;;;;5014090;28;19922;-81
2023/03/02 01:55:43;;;;;;;45.15;23.95;;;1.30;99.90;;;;;;5016211;28;20478;-80
2023/03/02 01:58:12;;;;;;;42.17;24.27;;;1.30;99.90;;;;;;5025096;28;20050;-82
2023/03/02 02:00:39;;;;;;;44.53;24.52;;;1.30;99.90;;;;;;5030618;28;20068;-81
2023/03/02 02:03:27;;;;;;;46.20;24.95;;;1.20;99.90;;;;;;5027522;28;20045;-83
2023/03/02 02:06:16;;;;;;;43.42;24.88;;;1.20;99.90;;;;;;5022895;28;20096;-80
2023/03/02 02:08:45;;;;;;;44.17;23.70;;;1.20;99.90;;;;;;5019969;28;20041;-81
2023/03/02 02:11:12;;;;;;;40.85;23.05;;;1.20;99.90;;;;;;5023166;28;20502;-80
2023/03/02 02:13:39;;;;;;;40.05;24.02;;;1.20;99.90;;;;;;5026206;28;20128;-81
2023/03/02 02:16:06;;;;;;;41.22;23.30;;;1.10;99.90;;;;;;5028717;28;20560;-80
2023/03/02 02:18:36;;;;;;;41.88;23.73;;;1.20;99.90;;;;;;5029491;28;20053;-81
2023/03/02 02:21:05;;;;;;;41.28;22.70;;;1.10;99.90;;;;;;5014289;28;20049;-81
2023/03/02 02:23:56;;;;;;;46.50;23.77;;;1.10;99.90;;;;;;5022953;28;20042;-81
2023/03/02 02:26:28;;;;;;;43.83;23.58;;;1.10;99.90;;;;;;5016323;28;20048;-81
2023/03/02 02:29:01;;;;;;;43.05;21.85;;;1.10;99.90;;;;;;5021210;28;20046;-80
2023/03/02 02:31:58;;;;;;;41.15;23.90;;;1.10;99.90;;;;;;5030498;28;20106;-81
2023/03/02 02:34:47;;;;;;;46.15;24.65;;;1.00;99.90;;;;;;5020991;28;20048;-81
2023/03/02 02:37:21;;;;;;;42.88;23.27;;;1.00;99.90;;;;;;5025040;28;20092;-81
2023/03/02 02:39:49;;;;;;;46.33;24.77;;;1.00;99.90;;;;;;5023996;28;20038;-81
2023/03/02 02:42:38;;;;;;;45.05;24.38;;;1.00;99.90;;;;;;5018188;28;20056;-81
2023/03/02 02:45:16;;;;;;;44.88;24.48;;;1.00;99.90;;;;;;5024874;28;20079;-80
2023/03/02 02:47:43;;;;;;;39.40;22.45;;;0.90;99.90;;;;;;5023447;28;20048;-80
2023/03/02 02:50:37;;;;;;;47.13;24.42;;;0.90;99.90;;;;;;5018638;28;20647;-80
2023/03/02 02:53:16;;;;;;;38.20;22.40;;;0.90;99.90;;;;;;5022337;28;20064;-81
2023/03/02 02:55:46;;;;;;;40.67;22.45;;;0.90;99.90;;;;;;5019999;28;20041;-81
2023/03/02 02:58:22;;;;;;;45.65;23.88;;;0.90;99.90;;;;;;5030270;28;20042;-81
2023/03/02 03:00:49;;;;;;;43.88;23.10;;;0.90;99.90;;;;;;5030040;28;20489;-80
2023/03/02 03:03:35;;;;;;;44.35;23.45;;;0.90;99.90;;;;;;5013218;28;20050;-80
2023/03/02 03:06:04;;;;;;;46.05;23.50;;;0.90;99.90;;;;;;5019493;28;20046;-81
2023/03/02 03:08:49;;;;;;;45.13;23.55;;;0.90;99.90;;;;;;5024322;28;20042;-81
2023/03/02 03:11:22;;;;;;;46.05;23.90;;;0.90;99.90;;;;;;5023954;28;20060;-81
2023/03/02 03:14:04;;;;;;;45.72;24.38;;;0.80;99.90;;;;;;5027038;28;20056;-80
2023/03/02 03:16:33;;;;;;;44.38;23.88;;;0.80;99.90;;;;;;5016804;28;20046;-81
2023/03/02 03:19:24;;;;;;;44.10;23.80;;;0.80;99.90;;;;;;5018403;28;20056;-80
2023/03/02 03:21:53;;;;;;;44.80;23.85;;;0.80;99.90;;;;;;5009454;28;20042;-80
2023/03/02 03:24:21;;;;;;;42.22;23.35;;;0.80;99.90;;;;;;5024792;28;20049;-80
2023/03/02 03:26:48;;;;;;;47.42;24.90;;;0.80;99.90;;;;;;5028053;28;20073;-82
2023/03/02 03:29:17;;;;;;;43.78;22.90;;;0.70;99.90;;;;;;5022856;28;20046;-81
2023/03/02 03:31:43;;;;;;;44.65;24.63;;;0.70;99.90;;;;;;5016156;28;20048;-83
2023/03/02 03:34:10;;;;;;;46.75;23.70;;;0.70;99.90;;;;;;5018945;28;20054;-82
2023/03/02 03:36:37;;;;;;;42.85;23.40;;;0.70;99.90;;;;;;5030133;28;20125;-81
2023/03/02 03:39:05;;;;;;;44.35;24.30;;;0.70;99.90;;;;;;5027261;28;20132;-81
2023/03/02 03:41:32;;;;;;;44.97;23.83;;;0.70;99.90;;;;;;5022146;28;20464;-80
2023/03/02 03:43:59;;;;;;;42.60;23.17;;;0.70;99.90;;;;;;5020356;28;20049;-80
2023/03/02 03:46:26;;;;;;;40.05;23.27;;;0.70;99.90;;;;;;5010673;28;20053;-81
2023/03/02 03:48:53;;;;;;;45.83;25.25;;;0.70;99.90;;;;;;5015051;28;20081;-81
2023/03/02 03:51:19;;;;;;;45.35;22.95;;;0.60;99.90;;;;;;5025029;28;20109;-81
2023/03/02 03:53:58;;;;;;;45.00;23.38;;;0.60;99.90;;;;;;5019364;28;20046;-80
2023/03/02 03:56:32;;;;;;;43.70;23.65;;;0.60;99.90;;;;;;5026526;28;20169;-81
2023/03/02 03:59:06;;;;;;;45.63;22.67;;;0.60;99.90;;;;;;5017497;28;20057;-83
2023/03/02 04:01:59;;;;;;;44.33;23.83;;;0.60;99.90;;;;;;5021189;28;20533;-81
2023/03/02 04:04:32;;;;;;;44.58;23.67;;;0.60;99.90;;;;;;5039181;28;20042;-80
2023/03/02 04:06:59;;;;;;;50.20;25.88;;;0.60;99.90;;;;;;5024599;28;20038;-82
2023/03/02 04:09:26;;;;;;;42.33;23.15;;;0.60;99.90;;;;;;5018955;28;20038;-80
2023/03/02 04:11:54;;;;;;;48.75;24.65;;;0.60;99.90;;;;;;5026951;28;20046;-80
2023/03/02 04:14:23;;;;;;;44.97;23.45;;;0.50;99.90;;;;;;5013949;28;20129;-81
2023/03/02 04:16:50;;;;;;;45.10;24.48;;;0.50;99.90;;;;;;5021328;28;20045;-81
2023/03/02 04:19:17;;;;;;;42.17;24.65;;;0.50;99.90;;;;;;5022002;28;20045;-81
2023/03/02 04:21:47;;;;;;;44.95;23.35;;;0.50;99.90;;;;;;5022425;28;20140;-80
2023/03/02 04:24:16;;;;;;;48.55;24.77;;;0.50;99.90;;;;;;5026183;28;20052;-81
2023/03/02 04:26:43;;;;;;;48.58;24.02;;;0.50;99.90;;;;;;5027324;28;20042;-81
2023/03/02 04:29:11;;;;;;;45.85;24.13;;;0.50;99.90;;;;;;5019486;28;20052;-80
2023/03/02 04:31:38;;;;;;;48.30;24.05;;;0.50;99.90;;;;;;5018773;28;20137;-82
2023/03/02 04:34:07;;;;;;;43.17;23.77;;;0.60;99.90;;;;;;5019063;28;20052;-81
2023/03/02 04:36:36;;;;;;;46.17;23.90;;;0.60;99.90;;;;;;5024524;28;20046;-81
2023/03/02 04:39:05;;;;;;;40.35;23.15;;;0.60;99.90;;;;;;5027283;28;20057;-81
2023/03/02 04:41:32;;;;;;;44.28;24.50;;;0.60;99.90;;;;;;5019598;28;20053;-81
2023/03/02 04:43:59;;;;;;;48.35;25.52;;;0.70;99.90;;;;;;5018449;28;20038;-82
2023/03/02 04:46:26;;;;;;;44.80;23.88;;;0.70;99.90;;;;;;5021684;28;20489;-81
2023/03/02 04:48:54;;;;;;;46.03;24.23;;;0.70;99.90;;;;;;5025335;28;20045;-81
2023/03/02 04:51:28;;;;;;;46.50;24.92;;;0.80;99.90;;;;;;5028637;28;20712;-81
2023/03/02 04:53:58;;;;;;;45.78;23.50;;;0.80;99.90;;;;;;5025269;28;20115;-81
2023/03/02 04:56:24;;;;;;;44.92;24.92;;;0.80;99.90;;;;;;5010515;28;20046;-81
2023/03/02 04:58:51;;;;;;;49.92;25.23;;;0.70;99.90;;;;;;5017869;28;20124;-81
2023/03/02 05:01:18;;;;;;;47.70;24.00;;;0.80;99.90;;;;;;5022984;28;20042;-81
2023/03/02 05:03:46;;;;;;;44.63;23.08;;;0.80;99.90;;;;;;5041877;28;20420;-81
2023/03/02 05:06:13;;;;;;;45.08;25.35;;;0.80;99.90;;;;;;5031293;28;20053;-81
2023/03/02 05:08:40;;;;;;;46.25;25.13;;;0.80;99.90;;;;;;5028978;28;20512;-81
2023/03/02 05:11:07;;;;;;;46.30;25.60;;;0.80;99.90;;;;;;5036619;28;20049;-81
2023/03/02 05:13:34;;;;;;;53.42;26.80;;;0.80;99.90;;;;;;5021146;28;20053;-81
2023/03/02 05:16:01;;;;;;;53.65;27.80;;;0.80;99.90;;;;;;5026559;28;20409;-80
2023/03/02 05:18:28;;;;;;;46.35;26.60;;;0.70;99.90;;;;;;5021845;28;20053;-81
2023/03/02 05:20:56;;;;;;;55.90;27.52;;;0.80;99.90;;;;;;5027320;28;20042;-81
2023/03/02 05:23:22;;;;;;;43.30;23.92;;;0.70;99.90;;;;;;5020932;28;20116;-81
2023/03/02 05:25:53;;;;;;;50.83;26.17;;;0.70;99.90;;;;;;5024550;28;20132;-80
2023/03/02 05:28:22;;;;;;;47.80;25.85;;;0.70;99.90;;;;;;5022844;28;20046;-81
2023/03/02 05:30:49;;;;;;;52.92;27.73;;;0.70;99.90;;;;;;5022956;28;20412;-81
2023/03/02 05:33:17;;;;;;;47.30;25.13;;;0.70;99.90;;;;;;5031104;28;20056;-81
2023/03/02 05:35:44;;;;;;;48.83;26.95;;;0.70;99.90;;;;;;5034985;28;20060;-81
2023/03/02 05:38:11;;;;;;;48.75;26.70;;;0.70;99.90;;;;;;5035761;28;20493;-81
2023/03/02 05:40:39;;;;;;;49.00;25.92;;;0.70;99.90;;;;;;5021889;28;20695;-81
2023/03/02 05:43:07;;;;;;;49.53;25.73;;;0.70;99.90;;;;;;5024098;28;20046;-81
2023/03/02 05:45:36;;;;;;;53.03;26.05;;;0.70;99.90;;;;;;5025636;28;20049;-81
2023/03/02 05:48:04;;;;;;;46.00;24.98;;;0.70;99.90;;;;;;5031911;28;20060;-82
2023/03/02 05:50:32;;;;;;;45.97;25.92;;;0.80;99.90;;;;;;5031104;28;20060;-82
2023/03/02 05:53:01;;;;;;;50.78;26.48;;;0.80;99.90;;;;;;5023118;28;20472;-81
2023/03/02 05:55:28;;;;;;;46.45;24.13;;;0.80;99.90;;;;;;5037050;28;20052;-81
2023/03/02 05:57:55;;;;;;;50.50;26.08;;;0.80;99.90;;;;;;5025420;28;20050;-81
2023/03/02 06:00:23;;;;;;;48.70;26.23;;;0.90;99.90;;;;;;5031772;28;20490;-82
2023/03/02 06:02:49;;;;;;;48.38;25.33;;;0.90;99.90;;;;;;5031962;28;20041;-82
2023/03/02 06:05:18;;;;;;;52.80;26.08;;;0.90;99.90;;;;;;5022869;28;20077;-82
2023/03/02 06:07:45;;;;;;;49.05;25.80;;;1.00;99.90;;;;;;5033276;28;20073;-81
2023/03/02 06:10:13;;;;;;;50.78;26.60;;;1.00;99.90;;;;;;5033108;28;20553;-83
2023/03/02 06:12:40;;;;;;;48.33;27.35;;;1.10;99.90;;;;;;5035971;28;20110;-81
2023/03/02 06:15:08;;;;;;;48.33;26.30;;;1.10;99.90;;;;;;5037587;28;20053;-81
2023/03/02 06:17:34;;;;;;;49.78;26.10;;;1.10;99.90;;;;;;5047807;28;20056;-85
2023/03/02 06:20:05;;;;;;;44.47;26.20;;;1.20;99.90;;;;;;5045177;28;20056;-85
2023/03/02 06:22:31;;;;;;;52.75;26.08;;;1.20;99.90;;;;;;5051195;28;20043;-82
2023/03/02 06:24:58;;;;;;;49.50;25.95;;;1.20;99.90;;;;;;5045186;28;20093;-81
2023/03/02 06:27:25;;;;;;;49.42;26.17;;;1.30;99.90;;;;;;5046033;28;20046;-84
2023/03/02 06:29:52;;;;;;;49.97;26.92;;;1.30;99.90;;;;;;5038707;28;20087;-83
2023/03/02 06:32:18;;;;;;;49.60;26.60;;;1.30;99.90;;;;;;5037819;28;20053;-84
2023/03/02 06:34:45;;;;;;;46.67;26.00;;;1.40;99.90;;;;;;5032313;28;20080;-83
2023/03/02 06:37:12;;;;;;;48.80;27.00;;;1.40;99.90;;;;;;5029943;28;20050;-83
2023/03/02 06:39:39;;;;;;;48.00;27.98;;;1.40;99.90;;;;;;5031415;28;20523;-84
2023/03/02 06:42:06;;;;;;;51.75;28.00;;;1.50;99.90;;;;;;5034012;28;20076;-83
2023/03/02 06:44:32;;;;;;;51.00;26.92;;;1.50;99.90;;;;;;5034295;28;20042;-84
2023/03/02 06:46:59;;;;;;;48.28;26.02;;;1.60;99.90;;;;;;5032206;28;20042;-83
2023/03/02 06:49:26;;;;;;;43.88;24.65;;;1.60;99.90;;;;;;5018991;28;20042;-84
2023/03/02 06:51:52;;;;;;;46.97;25.83;;;1.60;99.90;;;;;;5027683;28;20056;-84
2023/03/02 06:54:19;;;;;;;44.72;26.27;;;1.70;99.90;;;;;;5031550;28;20056;-82
2023/03/02 06:56:49;;;;;;;48.83;26.70;;;1.70;99.90;;;;;;5037974;28;20103;-82
2023/03/02 06:59:16;;;;;;;47.70;27.55;;;1.80;99.90;;;;;;5041208;28;20056;-82
2023/03/02 07:01:42;;;;;;;47.50;26.75;;;1.80;99.90;;;;;;5039991;28;20049;-83
2023/03/02 07:04:09;;;;;;;50.67;27.40;;;1.90;99.90;;;;;;5033954;28;20049;-81
2023/03/02 07:06:36;;;;;;;50.42;27.98;;;1.90;99.90;;;;;;5030790;28;20045;-82
2023/03/02 07:09:03;;;;;;;52.38;29.83;;;2.00;99.90;;;;;;5033703;28;20064;-84
2023/03/02 07:11:29;;;;;;;58.42;32.60;;;2.00;99.90;;;;;;5041677;28;20050;-81
2023/03/02 07:13:59;;;;;;;49.60;29.73;;;2.00;99.90;;;;;;5042404;28;20049;-83
2023/03/02 07:16:26;;;;;;;49.33;27.60;;;2.10;99.90;;;;;;5035662;28;20110;-82
2023/03/02 07:18:53;;;;;;;46.00;26.75;;;2.10;99.90;;;;;;5033126;28;20394;-81
2023/03/02 07:21:20;;;;;;;44.47;26.52;;;2.20;99.90;;;;;;5030833;28;20073;-80
2023/03/02 07:23:47;;;;;;;50.75;26.13;;;2.20;99.90;;;;;;5035259;28;20045;-83
2023/03/02 07:26:13;;;;;;;45.55;26.83;;;2.20;99.90;;;;;;5038216;28;20056;-81
2023/03/02 07:28:42;;;;;;;44.78;25.60;;;2.30;99.90;;;;;;5040130;28;20416;-81
2023/03/02 07:31:10;;;;;;;49.42;27.33;;;2.30;99.90;;;;;;5028515;28;20076;-81
2023/03/02 07:33:38;;;;;;;43.25;25.80;;;2.40;99.90;;;;;;5027460;28;20314;-82
2023/03/02 07:36:06;;;;;;;44.05;24.73;;;2.40;99.90;;;;;;5036734;28;20075;-83
2023/03/02 07:38:35;;;;;;;41.22;24.13;;;2.50;99.90;;;;;;5041479;28;20049;-81
2023/03/02 07:41:05;;;;;;;39.75;24.20;;;2.50;99.90;;;;;;5036997;28;20069;-81
2023/03/02 07:43:34;;;;;;;50.20;26.13;;;2.50;99.90;;;;;;5032266;28;20042;-81
2023/03/02 07:46:03;;;;;;;46.05;26.02;;;2.60;99.90;;;;;;5028091;28;20054;-81
2023/03/02 07:48:31;;;;;;;44.70;24.77;;;2.60;99.90;;;;;;5032001;28;20054;-84
2023/03/02 07:51:02;;;;;;;45.80;25.15;;;2.70;99.90;;;;;;5033118;28;20100;-82
2023/03/02 07:53:30;;;;;;;46.55;26.35;;;2.70;99.90;;;;;;5032569;28;20041;-83
2023/03/02 07:55:57;;;;;;;44.55;25.35;;;2.70;99.90;;;;;;5032475;28;20052;-82
2023/03/02 07:58:23;;;;;;;46.35;25.83;;;2.80;99.90;;;;;;5028981;28;20054;-82
2023/03/02 08:00:50;;;;;;;43.17;25.42;;;2.80;99.90;;;;;;5026262;28;20084;-82
2023/03/02 08:03:17;;;;;;;46.03;27.95;;;2.80;99.90;;;;;;5034016;28;20046;-82
2023/03/02 08:05:43;;;;;;;49.47;27.55;;;2.90;99.90;;;;;;5038290;28;20057;-82
2023/03/02 08:08:10;;;;;;;42.08;26.70;;;3.00;99.90;;;;;;5038212;28;20064;-83
2023/03/02 08:10:37;;;;;;;50.03;25.27;;;3.00;99.90;;;;;;5033754;28;20077;-85
2023/03/02 08:13:04;;;;;;;40.67;24.63;;;3.10;99.90;;;;;;5033749;28;20056;-82
2023/03/02 08:15:30;;;;;;;46.33;26.42;;;3.10;99.90;;;;;;5020481;28;20057;-82
2023/03/02 08:17:57;;;;;;;43.38;24.30;;;3.10;99.90;;;;;;5046929;28;20057;-84
2023/03/02 08:20:24;;;;;;;43.53;25.42;;;3.20;99.90;;;;;;5048643;28;20073;-83
2023/03/02 08:22:51;;;;;;;43.05;24.63;;;3.20;99.90;;;;;;5023359;28;20045;-82
2023/03/02 08:25:17;;;;;;;44.67;26.25;;;3.20;99.90;;;;;;5027591;28;20042;-83
2023/03/02 08:27:44;;;;;;;42.90;25.50;;;3.30;99.90;;;;;;5028143;28;20107;-83
2023/03/02 08:30:12;;;;;;;47.72;27.10;;;3.30;99.90;;;;;;5041109;28;20046;-83
2023/03/02 08:32:39;;;;;;;44.55;26.88;;;3.40;99.90;;;;;;5030104;28;20052;-84
2023/03/02 08:35:06;;;;;;;41.60;26.58;;;3.50;99.90;;;;;;5043878;28;20059;-85
2023/03/02 08:37:33;;;;;;;45.03;26.55;;;3.50;99.90;;;;;;5051746;28;20042;-86
2023/03/02 08:40:00;;;;;;;46.25;25.42;;;3.50;99.90;;;;;;5043169;28;20066;-86
2023/03/02 08:42:27;;;;;;;45.40;25.80;;;3.60;99.90;;;;;;5027906;28;20057;-85
2023/03/02 08:44:53;;;;;;;44.13;25.30;;;3.60;99.90;;;;;;5030269;28;20558;-83
2023/03/02 08:47:20;;;;;;;42.00;25.42;;;3.60;99.90;;;;;;5025054;28;20113;-84
2023/03/02 08:49:48;;;;;;;42.65;25.60;;;3.60;99.90;;;;;;5032146;28;20076;-84
2023/03/02 08:52:15;;;;;;;42.72;25.88;;;3.70;99.90;;;;;;5031630;28;20495;-84
2023/03/02 08:54:42;;;;;;;46.92;24.17;;;3.50;99.90;;;;;;5026524;28;20101;-83
2023/03/02 08:57:11;;;;;;;42.75;24.67;;;3.60;99.90;;;;;;5028583;28;20057;-85
2023/03/02 08:59:38;;;;;;;45.65;25.65;;;3.60;99.90;;;;;;5031004;28;20091;-85
2023/03/02 09:02:06;;;;;;;43.78;24.50;;;3.70;99.90;;;;;;5030067;28;20053;-83
2023/03/02 09:04:33;;;;;;;47.25;24.98;;;3.70;99.90;;;;;;5029982;28;20147;-84
2023/03/02 09:06:59;;;;;;;47.88;27.23;;;3.80;99.90;;;;;;5026985;28;20489;-80
2023/03/02 09:09:26;;;;;;;42.25;25.30;;;3.80;99.90;;;;;;5013444;28;20117;-81
2023/03/02 09:11:53;;;;;;;45.25;25.42;;;3.80;99.90;;;;;;5016792;28;20054;-82
2023/03/02 09:14:20;;;;;;;44.97;25.60;;;3.90;99.90;;;;;;5020062;28;20152;-81
2023/03/02 09:16:46;;;;;;;40.55;25.45;;;3.80;99.90;;;;;;5026414;28;20432;-81
2023/03/02 09:19:13;;;;;;;44.42;24.80;;;3.90;99.90;;;;;;5028877;28;20073;-82
2023/03/02 09:21:40;;;;;;;45.00;26.83;;;4.00;99.90;;;;;;5019952;28;20042;-81
2023/03/02 09:24:07;;;;;;;48.38;25.65;;;4.00;99.90;;;;;;5017429;28;20428;-80
2023/03/02 09:26:33;;;;;;;45.63;26.48;;;4.10;99.90;;;;;;5018080;28;20053;-82
2023/03/02 09:29:00;;;;;;;42.78;24.63;;;4.10;99.90;;;;;;5023799;28;20049;-81
2023/03/02 09:31:27;;;;;;;47.03;25.92;;;4.20;99.90;;;;;;5020295;28;20053;-81
2023/03/02 09:33:56;;;;;;;42.65;25.10;;;4.30;99.90;;;;;;5022664;28;20053;-82
2023/03/02 09:36:24;;;;;;;45.45;26.23;;;4.30;99.90;;;;;;5025620;28;20049;-81
2023/03/02 09:38:51;;;;;;;41.95;25.02;;;4.40;99.90;;;;;;5017237;28;20049;-81
2023/03/02 09:41:18;;;;;;;46.50;26.75;;;4.40;99.90;;;;;;5020192;28;20046;-81
2023/03/02 09:43:51;;;;;;;42.65;26.65;;;4.50;99.90;;;;;;5023734;28;20041;-81
2023/03/02 09:46:26;;;;;;;42.95;26.52;;;4.50;99.90;;;;;;5012586;28;20042;-81
2023/03/02 09:49:07;;;;;;;43.40;26.80;;;4.60;99.90;;;;;;5020796;28;20065;-81
2023/03/02 09:52:03;;;;;;;37.08;24.20;;;4.60;99.90;;;;;;5017782;28;20474;-79
2023/03/02 09:54:31;;;;;;;46.45;26.35;;;4.70;99.90;;;;;;5021453;28;20085;-81
2023/03/02 09:56:58;;;;;;;46.63;26.60;;;4.70;99.90;;;;;;5020082;28;20415;-81
2023/03/02 09:59:31;;;;;;;47.60;26.63;;;4.80;99.90;;;;;;5025235;28;20084;-82
2023/03/02 10:02:23;;;;;;;42.13;25.58;;;4.80;99.90;;;;;;5032297;28;20124;-81
2023/03/02 10:04:53;;;;;;;47.58;24.98;;;4.90;99.90;;;;;;5020852;28;20042;-80
2023/03/02 10:07:27;;;;;;;;;;;4.70;99.90;;;;;;5020992;28;20045;-80
2023/03/02 10:10:23;;;;;;;48.75;26.80;;;4.70;99.90;;;;;;5016032;28;19925;-82
2023/03/02 10:13:12;;;;;;;40.90;24.58;;;4.80;99.90;;;;;;5027555;28;20463;-81
2023/03/02 10:15:47;;;;;;;42.75;25.80;;;4.90;99.90;;;;;;5027047;28;20053;-82
2023/03/02 10:18:20;;;;;;;46.95;27.80;;;4.90;99.90;;;;;;5033902;28;20053;-81
2023/03/02 10:21:11;;;;;;;45.25;26.70;;;5.00;99.90;;;;;;5022942;28;20053;-83
2023/03/02 10:23:45;;;;;;;42.50;26.20;;;5.00;99.90;;;;;;5026836;28;20129;-84
2023/03/02 10:26:26;;;;;;;42.90;25.67;;;5.10;99.90;;;;;;5035924;28;20141;-82
2023/03/02 10:29:30;;;;;;;45.25;26.92;;;5.20;99.90;;;;;;5038173;28;20577;-81
2023/03/02 10:32:15;;;;;;;43.85;27.40;;;5.20;99.90;;;;;;5027847;28;20119;-81
2023/03/02 10:34:41;;;;;;;48.33;28.08;;;5.30;99.90;;;;;;5021747;28;20068;-82
2023/03/02 10:37:15;;;;;;;44.95;26.30;;;5.30;99.90;;;;;;5027926;28;20149;-84
2023/03/02 10:39:42;;;;;;;40.50;26.70;;;5.40;99.90;;;;;;5024639;28;20124;-80
2023/03/02 10:42:36;;;;;;;51.15;28.58;;;5.40;99.90;;;;;;5018157;28;20048;-82
2023/03/02 10:45:27;;;;;;;46.03;25.92;;;5.40;99.90;;;;;;5029127;28;20057;-83
2023/03/02 10:48:01;;;;;;;45.55;28.05;;;5.50;99.90;;;;;;5026202;28;20042;-82
2023/03/02 10:50:29;;;;;;;42.58;26.83;;;5.50;99.90;;;;;;5012880;28;20795;-83
2023/03/02 10:52:56;;;;;;;51.72;27.90;;;5.60;99.90;;;;;;5018292;28;20560;-81
2023/03/02 10:55:28;;;;;;;46.15;28.13;;;5.50;99.90;;;;;;5023176;28;20061;-80
2023/03/02 10:58:44;;;;;;;49.28;29.67;;;5.50;99.90;;;;;;5029866;28;20041;-82
2023/03/02 11:01:17;;;;;;;50.47;28.95;;;5.60;99.90;;;;;;5014439;28;20064;-84
2023/03/02 11:04:00;;;;;;;44.92;26.80;;;5.60;99.90;;;;;;5022860;28;20045;-82
2023/03/02 11:06:28;;;;;;;45.60;28.20;;;5.60;99.90;;;;;;5022205;28;20053;-83
2023/03/02 11:09:04;;;;;;;45.17;28.30;;;5.60;99.90;;;;;;5027598;28;20045;-81
2023/03/02 11:11:32;;;;;;;49.13;30.23;;;5.70;99.90;;;;;;5030789;28;20060;-81
2023/03/02 11:14:14;;;;;;;44.75;28.40;;;5.80;99.90;;;;;;5027683;28;20072;-81
2023/03/02 11:16:41;;;;;;;43.70;27.13;;;5.90;99.90;;;;;;5019815;28;20436;-81
2023/03/02 11:19:26;;;;;;;46.35;27.25;;;6.00;99.90;;;;;;5019430;28;20053;-80
2023/03/02 11:22:36;;;;;;;46.72;28.83;;;6.10;99.90;;;;;;5024630;28;20045;-79
2023/03/02 11:25:06;;;;;;;49.15;28.50;;;6.10;99.90;;;;;;5020984;28;20071;-82
2023/03/02 11:27:37;;;;;;;47.15;29.23;;;6.20;99.90;;;;;;5027313;28;20084;-82
2023/03/02 11:30:14;;;;;;;40.58;25.15;;;6.30;99.90;;;;;;5021674;28;20548;-84
2023/03/02 11:32:59;;;;;;;43.58;25.95;;;6.40;99.90;;;;;;5017063;28;20060;-82
2023/03/02 11:35:31;;;;;;;48.30;28.35;;;6.50;99.90;;;;;;5024718;28;20057;-82
2023/03/02 11:38:31;;;;;;;45.38;27.75;;;6.50;99.90;;;;;;5031722;28;20049;-82
2023/03/02 11:41:14;;;;;;;43.47;25.85;;;6.50;99.90;;;;;;5027484;28;20073;-82
2023/03/02 11:43:40;;;;;;;48.38;26.75;;;6.60;99.90;;;;;;5025354;28;20210;-82
2023/03/02 11:46:22;;;;;;;46.60;29.42;;;6.60;99.90;;;;;;5031577;28;20038;-83
2023/03/02 11:48:56;;;;;;;47.22;27.50;;;6.70;99.90;;;;;;5032528;28;20048;-86
2023/03/02 11:51:35;;;;;;;44.80;26.65;;;6.70;99.90;;;;;;5039606;28;20128;-86
2023/03/02 11:54:22;;;;;;;42.50;26.55;;;6.80;99.90;;;;;;5042283;28;20041;-83
2023/03/02 11:56:49;;;;;;;46.28;27.63;;;6.80;99.90;;;;;;5035920;28;20097;-82
2023/03/02 11:59:19;;;;;;;47.15;27.70;;;6.90;99.90;;;;;;5024482;28;20068;-82
2023/03/02 12:01:50;;;;;;;;;;;6.90;99.90;;;;;;5046132;28;20069;-81
2023/03/02 12:04:33;;;;;;;44.13;26.25;;;7.00;99.90;;;;;;5029596;28;19924;-82
2023/03/02 12:07:14;;;;;;;42.85;26.70;;;7.00;99.90;;;;;;5032450;28;20631;-83
2023/03/02 12:09:41;;;;;;;42.65;27.10;;;7.10;99.90;;;;;;5030229;28;20050;-83
2023/03/02 12:12:25;;;;;;;46.38;26.38;;;7.10;99.90;;;;;;5027658;28;20064;-82
2023/03/02 12:14:52;;;;;;;41.90;25.10;;;7.10;99.90;;;;;;5016774;28;20046;-85
2023/03/02 12:17:31;;;;;;;40.03;26.20;;;7.10;99.90;;;;;;5028429;28;20096;-84
2023/03/02 12:20:06;;;;;;;46.28;26.92;;;7.20;99.90;;;;;;5031822;28;20049;-83
2023/03/02 12:22:35;;;;;;;49.75;25.42;;;7.30;99.90;;;;;;5021975;28;20096;-82
2023/03/02 12:25:19;;;;;;;43.47;25.67;;;7.20;99.90;;;;;;5038528;28;20081;-82
2023/03/02 12:27:48;;;;;;;43.47;26.30;;;7.10;99.90;;;;;;5029354;28;20084;-84
2023/03/02 12:30:22;;;;;;;42.13;25.65;;;7.20;99.90;;;;;;5034222;28;20468;-83
2023/03/02 12:33:09;;;;;;;42.70;26.05;;;7.20;99.90;;;;;;5026988;28;20077;-83
2023/03/02 12:35:37;;;;;;;44.40;26.58;;;7.20;99.90;;;;;;5020617;28;20080;-81
2023/03/02 12:38:21;;;;;;;39.78;25.27;;;7.20;99.90;;;;;;5037454;28;20053;-82
2023/03/02 12:41:19;;;;;;;45.30;27.95;;;7.20;99.90;;;;;;5021567;28;20124;-82
2023/03/02 12:44:26;;;;;;;44.70;25.40;;;7.10;99.90;;;;;;5024811;28;20121;-82
2023/03/02 12:46:55;;;;;;;50.90;27.00;;;7.20;99.90;;;;;;5023702;28;20037;-82
2023/03/02 12:49:45;;;;;;;43.22;27.23;;;7.20;99.90;;;;;;5012117;28;20121;-83
2023/03/02 12:52:25;;;;;;;;;;;7.30;99.90;;;;;;5027490;28;20055;-81
2023/03/02 12:55:10;;;;;;;45.63;26.80;;;7.30;99.90;;;;;;5027541;28;19922;-82
2023/03/02 12:57:45;;;;;;;49.25;27.08;;;7.40;99.90;;;;;;5018415;28;20064;-82
2023/03/02 13:00:16;;;;;;;45.00;25.70;;;7.40;99.90;;;;;;5020412;28;20047;-85